sensor_id;sensor_type;location;lat;lon;timestamp;P1;durP1;ratioP1;P2;durP2;ratioP2
7965;SDS011;4028;43.272;26.932;2023-05-31T00:02:05;15.27;;;8.68;;
7965;SDS011;4028;43.272;26.932;2023-05-31T00:04:31;9.32;;;8.27;;
7965;SDS011;4028;43.272;26.932;2023-05-31T00:06:56;12.45;;;8.23;;
7965;SDS011;4028;43.272;26.932;2023-05-31T00:09:22;13.88;;;9.80;;
7965;SDS011;4028;43.272;26.932;2023-05-31T00:11:47;11.70;;;9.35;;
7965;SDS011;4028;43.272;26.932;2023-05-31T00:14:13;14.00;;;10.10;;
7965;SDS011;4028;43.272;26.932;2023-05-31T00:16:38;13.52;;;10.15;;
7965;SDS011;4028;43.272;26.932;2023-05-31T00:19:04;14.90;;;9.80;;
7965;SDS011;4028;43.272;26.932;2023-05-31T00:21:29;11.20;;;10.10;;
7965;SDS011;4028;43.272;26.932;2023-05-31T00:23:55;12.75;;;10.55;;
7965;SDS011;4028;43.272;26.932;2023-05-31T00:26:21;14.27;;;11.30;;
7965;SDS011;4028;43.272;26.932;2023-05-31T00:28:47;12.57;;;10.32;;
7965;SDS011;4028;43.272;26.932;2023-05-31T00:31:12;16.48;;;10.13;;
7965;SDS011;4028;43.272;26.932;2023-05-31T00:33:38;11.60;;;9.43;;
7965;SDS011;4028;43.272;26.932;2023-05-31T00:36:03;11.60;;;9.07;;
7965;SDS011;4028;43.272;26.932;2023-05-31T00:38:29;12.35;;;9.30;;
7965;SDS011;4028;43.272;26.932;2023-05-31T00:40:54;14.35;;;9.63;;
7965;SDS011;4028;43.272;26.932;2023-05-31T00:43:20;9.95;;;8.93;;
7965;SDS011;4028;43.272;26.932;2023-05-31T00:45:45;11.82;;;9.30;;
7965;SDS011;4028;43.272;26.932;2023-05-31T00:48:11;11.27;;;9.15;;
7965;SDS011;4028;43.272;26.932;2023-05-31T00:50:36;11.30;;;9.20;;
7965;SDS011;4028;43.272;26.932;2023-05-31T00:53:02;16.95;;;10.30;;
7965;SDS011;4028;43.272;26.932;2023-05-31T00:55:29;11.15;;;10.02;;
7965;SDS011;4028;43.272;26.932;2023-05-31T00:57:57;13.87;;;10.10;;
7965;SDS011;4028;43.272;26.932;2023-05-31T01:00:23;15.52;;;10.25;;
7965;SDS011;4028;43.272;26.932;2023-05-31T01:02:50;17.58;;;11.48;;
7965;SDS011;4028;43.272;26.932;2023-05-31T01:05:17;10.75;;;9.75;;
7965;SDS011;4028;43.272;26.932;2023-05-31T01:10:18;11.57;;;10.47;;
7965;SDS011;4028;43.272;26.932;2023-05-31T01:12:52;10.73;;;9.63;;
7965;SDS011;4028;43.272;26.932;2023-05-31T01:15:25;14.33;;;10.90;;
7965;SDS011;4028;43.272;26.932;2023-05-31T01:20:50;12.33;;;11.00;;
7965;SDS011;4028;43.272;26.932;2023-05-31T01:29:08;15.20;;;11.10;;
7965;SDS011;4028;43.272;26.932;2023-05-31T01:31:37;13.18;;;10.02;;
7965;SDS011;4028;43.272;26.932;2023-05-31T01:34:04;12.43;;;9.90;;
7965;SDS011;4028;43.272;26.932;2023-05-31T01:36:30;13.30;;;11.03;;
7965;SDS011;4028;43.272;26.932;2023-05-31T01:38:57;11.70;;;10.50;;
7965;SDS011;4028;43.272;26.932;2023-05-31T01:41:26;14.57;;;10.40;;
7965;SDS011;4028;43.272;26.932;2023-05-31T01:43:53;14.48;;;11.05;;
7965;SDS011;4028;43.272;26.932;2023-05-31T01:46:19;14.80;;;11.70;;
7965;SDS011;4028;43.272;26.932;2023-05-31T01:48:45;13.67;;;9.93;;
7965;SDS011;4028;43.272;26.932;2023-05-31T01:51:13;15.23;;;11.47;;
7965;SDS011;4028;43.272;26.932;2023-05-31T01:53:42;11.90;;;10.80;;
7965;SDS011;4028;43.272;26.932;2023-05-31T01:56:08;14.87;;;10.87;;
7965;SDS011;4028;43.272;26.932;2023-05-31T01:58:36;11.90;;;10.70;;
7965;SDS011;4028;43.272;26.932;2023-05-31T02:01:03;12.47;;;10.70;;
7965;SDS011;4028;43.272;26.932;2023-05-31T02:03:29;14.30;;;10.80;;
7965;SDS011;4028;43.272;26.932;2023-05-31T02:08:22;13.27;;;11.43;;
7965;SDS011;4028;43.272;26.932;2023-05-31T02:10:48;11.87;;;10.40;;
7965;SDS011;4028;43.272;26.932;2023-05-31T02:13:14;14.27;;;11.43;;
7965;SDS011;4028;43.272;26.932;2023-05-31T02:15:39;16.13;;;11.60;;
7965;SDS011;4028;43.272;26.932;2023-05-31T02:18:06;15.50;;;12.13;;
7965;SDS011;4028;43.272;26.932;2023-05-31T02:20:33;13.20;;;11.70;;
7965;SDS011;4028;43.272;26.932;2023-05-31T02:22:58;14.80;;;11.90;;
7965;SDS011;4028;43.272;26.932;2023-05-31T02:25:24;12.17;;;10.97;;
7965;SDS011;4028;43.272;26.932;2023-05-31T02:27:50;14.57;;;11.13;;
7965;SDS011;4028;43.272;26.932;2023-05-31T02:30:15;13.40;;;11.20;;
7965;SDS011;4028;43.272;26.932;2023-05-31T02:32:41;21.97;;;11.67;;
7965;SDS011;4028;43.272;26.932;2023-05-31T02:35:08;15.30;;;11.47;;
7965;SDS011;4028;43.272;26.932;2023-05-31T02:37:35;15.57;;;12.20;;
7965;SDS011;4028;43.272;26.932;2023-05-31T02:40:05;14.63;;;11.83;;
7965;SDS011;4028;43.272;26.932;2023-05-31T02:42:34;13.77;;;11.73;;
7965;SDS011;4028;43.272;26.932;2023-05-31T02:45:00;12.83;;;11.53;;
7965;SDS011;4028;43.272;26.932;2023-05-31T02:47:25;17.50;;;11.83;;
7965;SDS011;4028;43.272;26.932;2023-05-31T02:49:52;13.97;;;11.37;;
7965;SDS011;4028;43.272;26.932;2023-05-31T02:52:17;16.57;;;11.83;;
7965;SDS011;4028;43.272;26.932;2023-05-31T02:54:43;21.10;;;12.10;;
7965;SDS011;4028;43.272;26.932;2023-05-31T02:57:08;13.33;;;11.83;;
7965;SDS011;4028;43.272;26.932;2023-05-31T02:59:34;14.70;;;11.57;;
7965;SDS011;4028;43.272;26.932;2023-05-31T03:01:59;14.90;;;11.37;;
7965;SDS011;4028;43.272;26.932;2023-05-31T03:04:25;10.80;;;9.73;;
7965;SDS011;4028;43.272;26.932;2023-05-31T03:06:50;14.87;;;10.30;;
7965;SDS011;4028;43.272;26.932;2023-05-31T03:09:16;13.60;;;9.73;;
7965;SDS011;4028;43.272;26.932;2023-05-31T03:11:45;10.97;;;9.87;;
7965;SDS011;4028;43.272;26.932;2023-05-31T03:14:11;10.47;;;9.57;;
7965;SDS011;4028;43.272;26.932;2023-05-31T03:16:37;10.87;;;9.77;;
7965;SDS011;4028;43.272;26.932;2023-05-31T03:19:02;14.43;;;9.77;;
7965;SDS011;4028;43.272;26.932;2023-05-31T03:21:28;16.70;;;11.83;;
7965;SDS011;4028;43.272;26.932;2023-05-31T03:23:53;15.97;;;12.10;;
7965;SDS011;4028;43.272;26.932;2023-05-31T03:26:20;14.07;;;11.70;;
7965;SDS011;4028;43.272;26.932;2023-05-31T03:28:45;12.50;;;11.17;;
7965;SDS011;4028;43.272;26.932;2023-05-31T03:31:11;11.33;;;10.23;;
7965;SDS011;4028;43.272;26.932;2023-05-31T03:33:36;10.50;;;9.50;;
7965;SDS011;4028;43.272;26.932;2023-05-31T03:36:02;10.65;;;9.45;;
7965;SDS011;4028;43.272;26.932;2023-05-31T03:38:28;9.48;;;8.57;;
7965;SDS011;4028;43.272;26.932;2023-05-31T03:40:54;8.98;;;8.07;;
7965;SDS011;4028;43.272;26.932;2023-05-31T03:43:19;16.73;;;7.90;;
7965;SDS011;4028;43.272;26.932;2023-05-31T03:45:45;9.93;;;7.22;;
7965;SDS011;4028;43.272;26.932;2023-05-31T03:48:11;16.15;;;8.38;;
7965;SDS011;4028;43.272;26.932;2023-05-31T03:50:38;9.57;;;7.70;;
7965;SDS011;4028;43.272;26.932;2023-05-31T03:53:04;10.90;;;7.95;;
7965;SDS011;4028;43.272;26.932;2023-05-31T03:55:30;10.77;;;8.45;;
7965;SDS011;4028;43.272;26.932;2023-05-31T03:57:55;12.48;;;8.32;;
7965;SDS011;4028;43.272;26.932;2023-05-31T04:00:21;13.02;;;8.30;;
7965;SDS011;4028;43.272;26.932;2023-05-31T04:02:46;10.32;;;7.40;;
7965;SDS011;4028;43.272;26.932;2023-05-31T04:05:12;10.23;;;8.15;;
7965;SDS011;4028;43.272;26.932;2023-05-31T04:07:37;12.27;;;8.40;;
7965;SDS011;4028;43.272;26.932;2023-05-31T04:10:03;16.55;;;8.57;;
7965;SDS011;4028;43.272;26.932;2023-05-31T04:12:29;16.17;;;9.48;;
7965;SDS011;4028;43.272;26.932;2023-05-31T04:14:55;17.40;;;9.35;;
7965;SDS011;4028;43.272;26.932;2023-05-31T04:17:20;14.80;;;9.13;;
7965;SDS011;4028;43.272;26.932;2023-05-31T04:19:46;15.63;;;8.38;;
7965;SDS011;4028;43.272;26.932;2023-05-31T04:22:11;15.40;;;9.27;;
7965;SDS011;4028;43.272;26.932;2023-05-31T04:24:37;11.98;;;8.88;;
7965;SDS011;4028;43.272;26.932;2023-05-31T04:27:02;9.90;;;8.85;;
7965;SDS011;4028;43.272;26.932;2023-05-31T04:29:28;11.27;;;7.97;;
7965;SDS011;4028;43.272;26.932;2023-05-31T04:31:54;9.63;;;8.30;;
7965;SDS011;4028;43.272;26.932;2023-05-31T04:34:20;11.43;;;7.88;;
7965;SDS011;4028;43.272;26.932;2023-05-31T04:36:46;11.18;;;8.18;;
7965;SDS011;4028;43.272;26.932;2023-05-31T04:39:14;10.95;;;7.38;;
7965;SDS011;4028;43.272;26.932;2023-05-31T04:41:44;12.07;;;7.63;;
7965;SDS011;4028;43.272;26.932;2023-05-31T04:44:10;12.10;;;8.23;;
7965;SDS011;4028;43.272;26.932;2023-05-31T04:46:36;14.70;;;7.93;;
7965;SDS011;4028;43.272;26.932;2023-05-31T04:49:01;12.57;;;7.80;;
7965;SDS011;4028;43.272;26.932;2023-05-31T04:51:28;8.27;;;7.47;;
7965;SDS011;4028;43.272;26.932;2023-05-31T04:53:53;8.70;;;7.80;;
7965;SDS011;4028;43.272;26.932;2023-05-31T04:56:19;11.95;;;8.50;;
7965;SDS011;4028;43.272;26.932;2023-05-31T04:58:46;10.35;;;6.75;;
7965;SDS011;4028;43.272;26.932;2023-05-31T05:01:12;11.02;;;8.48;;
7965;SDS011;4028;43.272;26.932;2023-05-31T05:03:40;12.05;;;8.25;;
7965;SDS011;4028;43.272;26.932;2023-05-31T05:06:13;10.05;;;8.68;;
7965;SDS011;4028;43.272;26.932;2023-05-31T05:08:41;12.10;;;8.57;;
7965;SDS011;4028;43.272;26.932;2023-05-31T05:11:07;10.13;;;8.60;;
7965;SDS011;4028;43.272;26.932;2023-05-31T05:13:33;18.45;;;9.02;;
7965;SDS011;4028;43.272;26.932;2023-05-31T05:15:59;13.95;;;8.88;;
7965;SDS011;4028;43.272;26.932;2023-05-31T05:18:25;9.50;;;8.52;;
7965;SDS011;4028;43.272;26.932;2023-05-31T05:20:51;14.80;;;9.13;;
7965;SDS011;4028;43.272;26.932;2023-05-31T05:23:17;11.52;;;9.10;;
7965;SDS011;4028;43.272;26.932;2023-05-31T05:25:42;12.68;;;9.10;;
7965;SDS011;4028;43.272;26.932;2023-05-31T05:28:08;12.60;;;8.18;;
7965;SDS011;4028;43.272;26.932;2023-05-31T05:30:33;18.20;;;8.82;;
7965;SDS011;4028;43.272;26.932;2023-05-31T05:32:59;8.85;;;7.95;;
7965;SDS011;4028;43.272;26.932;2023-05-31T05:35:25;8.77;;;7.72;;
7965;SDS011;4028;43.272;26.932;2023-05-31T05:37:50;12.70;;;8.40;;
7965;SDS011;4028;43.272;26.932;2023-05-31T05:40:17;11.90;;;8.00;;
7965;SDS011;4028;43.272;26.932;2023-05-31T05:42:43;11.00;;;8.05;;
7965;SDS011;4028;43.272;26.932;2023-05-31T05:45:09;13.10;;;9.57;;
7965;SDS011;4028;43.272;26.932;2023-05-31T05:47:35;12.88;;;8.73;;
7965;SDS011;4028;43.272;26.932;2023-05-31T05:50:01;13.65;;;8.55;;
7965;SDS011;4028;43.272;26.932;2023-05-31T05:52:27;11.93;;;7.90;;
7965;SDS011;4028;43.272;26.932;2023-05-31T05:54:53;12.65;;;7.80;;
7965;SDS011;4028;43.272;26.932;2023-05-31T05:57:18;13.50;;;7.82;;
7965;SDS011;4028;43.272;26.932;2023-05-31T05:59:44;7.90;;;7.10;;
7965;SDS011;4028;43.272;26.932;2023-05-31T06:02:10;9.80;;;6.60;;
7965;SDS011;4028;43.272;26.932;2023-05-31T06:04:36;11.25;;;6.85;;
7965;SDS011;4028;43.272;26.932;2023-05-31T06:07:02;12.98;;;7.35;;
7965;SDS011;4028;43.272;26.932;2023-05-31T06:09:28;15.20;;;8.00;;
7965;SDS011;4028;43.272;26.932;2023-05-31T06:11:54;12.00;;;6.93;;
7965;SDS011;4028;43.272;26.932;2023-05-31T06:14:19;11.35;;;7.25;;
7965;SDS011;4028;43.272;26.932;2023-05-31T06:16:44;12.18;;;6.90;;
7965;SDS011;4028;43.272;26.932;2023-05-31T06:19:10;12.15;;;6.72;;
7965;SDS011;4028;43.272;26.932;2023-05-31T06:21:35;15.88;;;7.40;;
7965;SDS011;4028;43.272;26.932;2023-05-31T06:24:01;10.30;;;6.85;;
7965;SDS011;4028;43.272;26.932;2023-05-31T06:26:30;10.10;;;7.07;;
7965;SDS011;4028;43.272;26.932;2023-05-31T06:28:56;11.75;;;6.40;;
7965;SDS011;4028;43.272;26.932;2023-05-31T06:31:25;9.10;;;6.10;;
7965;SDS011;4028;43.272;26.932;2023-05-31T06:33:52;12.38;;;6.47;;
7965;SDS011;4028;43.272;26.932;2023-05-31T06:36:17;10.18;;;6.43;;
7965;SDS011;4028;43.272;26.932;2023-05-31T06:38:43;9.88;;;6.47;;
7965;SDS011;4028;43.272;26.932;2023-05-31T06:41:09;10.13;;;5.78;;
7965;SDS011;4028;43.272;26.932;2023-05-31T06:43:35;7.53;;;6.20;;
7965;SDS011;4028;43.272;26.932;2023-05-31T06:46:00;11.32;;;5.68;;
7965;SDS011;4028;43.272;26.932;2023-05-31T06:48:26;7.20;;;6.45;;
7965;SDS011;4028;43.272;26.932;2023-05-31T06:50:51;13.35;;;6.82;;
7965;SDS011;4028;43.272;26.932;2023-05-31T06:53:17;23.33;;;7.15;;
7965;SDS011;4028;43.272;26.932;2023-05-31T06:55:42;14.27;;;6.53;;
7965;SDS011;4028;43.272;26.932;2023-05-31T06:58:08;12.63;;;6.50;;
7965;SDS011;4028;43.272;26.932;2023-05-31T07:00:33;12.05;;;6.15;;
7965;SDS011;4028;43.272;26.932;2023-05-31T07:02:59;7.50;;;5.85;;
7965;SDS011;4028;43.272;26.932;2023-05-31T07:05:24;12.65;;;6.22;;
7965;SDS011;4028;43.272;26.932;2023-05-31T07:07:50;9.00;;;5.70;;
7965;SDS011;4028;43.272;26.932;2023-05-31T07:10:15;7.63;;;5.75;;
7965;SDS011;4028;43.272;26.932;2023-05-31T07:12:42;7.63;;;5.20;;
7965;SDS011;4028;43.272;26.932;2023-05-31T07:15:07;10.30;;;5.25;;
7965;SDS011;4028;43.272;26.932;2023-05-31T07:17:36;8.70;;;4.90;;
7965;SDS011;4028;43.272;26.932;2023-05-31T07:20:02;10.18;;;5.00;;
7965;SDS011;4028;43.272;26.932;2023-05-31T07:22:28;9.40;;;4.32;;
7965;SDS011;4028;43.272;26.932;2023-05-31T07:24:54;4.85;;;4.35;;
7965;SDS011;4028;43.272;26.932;2023-05-31T07:27:19;6.75;;;4.00;;
7965;SDS011;4028;43.272;26.932;2023-05-31T07:29:45;8.57;;;4.55;;
7965;SDS011;4028;43.272;26.932;2023-05-31T07:32:10;10.60;;;4.35;;
7965;SDS011;4028;43.272;26.932;2023-05-31T07:34:36;5.85;;;3.60;;
7965;SDS011;4028;43.272;26.932;2023-05-31T07:37:01;7.03;;;4.20;;
7965;SDS011;4028;43.272;26.932;2023-05-31T07:39:28;8.45;;;4.28;;
7965;SDS011;4028;43.272;26.932;2023-05-31T07:41:53;10.38;;;4.82;;
7965;SDS011;4028;43.272;26.932;2023-05-31T07:44:19;10.07;;;3.67;;
7965;SDS011;4028;43.272;26.932;2023-05-31T07:46:45;17.15;;;4.88;;
7965;SDS011;4028;43.272;26.932;2023-05-31T07:49:10;6.78;;;3.80;;
7965;SDS011;4028;43.272;26.932;2023-05-31T07:51:35;11.93;;;4.32;;
7965;SDS011;4028;43.272;26.932;2023-05-31T07:54:02;7.20;;;3.80;;
7965;SDS011;4028;43.272;26.932;2023-05-31T07:56:28;6.47;;;4.13;;
7965;SDS011;4028;43.272;26.932;2023-05-31T07:58:53;6.05;;;4.00;;
7965;SDS011;4028;43.272;26.932;2023-05-31T08:01:19;6.25;;;3.42;;
7965;SDS011;4028;43.272;26.932;2023-05-31T08:03:44;7.15;;;3.30;;
7965;SDS011;4028;43.272;26.932;2023-05-31T08:06:10;4.60;;;3.38;;
7965;SDS011;4028;43.272;26.932;2023-05-31T08:08:35;3.50;;;3.15;;
7965;SDS011;4028;43.272;26.932;2023-05-31T08:11:01;7.57;;;3.47;;
7965;SDS011;4028;43.272;26.932;2023-05-31T08:13:27;36.38;;;7.93;;
7965;SDS011;4028;43.272;26.932;2023-05-31T08:15:54;10.77;;;3.60;;
7965;SDS011;4028;43.272;26.932;2023-05-31T08:18:21;6.07;;;3.08;;
7965;SDS011;4028;43.272;26.932;2023-05-31T08:20:46;6.97;;;3.60;;
7965;SDS011;4028;43.272;26.932;2023-05-31T08:23:19;5.97;;;3.70;;
7965;SDS011;4028;43.272;26.932;2023-05-31T08:25:45;5.85;;;3.63;;
7965;SDS011;4028;43.272;26.932;2023-05-31T08:28:11;3.85;;;3.25;;
7965;SDS011;4028;43.272;26.932;2023-05-31T08:30:36;7.85;;;3.47;;
7965;SDS011;4028;43.272;26.932;2023-05-31T08:33:02;7.80;;;3.45;;
7965;SDS011;4028;43.272;26.932;2023-05-31T08:35:27;6.55;;;3.47;;
7965;SDS011;4028;43.272;26.932;2023-05-31T08:37:53;8.45;;;3.40;;
7965;SDS011;4028;43.272;26.932;2023-05-31T08:40:19;5.80;;;3.47;;
7965;SDS011;4028;43.272;26.932;2023-05-31T08:45:40;6.63;;;3.40;;
7965;SDS011;4028;43.272;26.932;2023-05-31T08:48:13;4.63;;;3.45;;
7965;SDS011;4028;43.272;26.932;2023-05-31T08:50:58;7.07;;;3.60;;
7965;SDS011;4028;43.272;26.932;2023-05-31T08:53:26;5.90;;;3.60;;
7965;SDS011;4028;43.272;26.932;2023-05-31T08:55:53;10.02;;;3.33;;
7965;SDS011;4028;43.272;26.932;2023-05-31T08:58:19;4.90;;;3.05;;
7965;SDS011;4028;43.272;26.932;2023-05-31T09:00:45;5.90;;;3.63;;
7965;SDS011;4028;43.272;26.932;2023-05-31T09:03:14;4.22;;;3.25;;
7965;SDS011;4028;43.272;26.932;2023-05-31T09:05:39;4.20;;;3.80;;
7965;SDS011;4028;43.272;26.932;2023-05-31T09:08:05;3.95;;;3.58;;
7965;SDS011;4028;43.272;26.932;2023-05-31T09:10:31;7.45;;;4.20;;
7965;SDS011;4028;43.272;26.932;2023-05-31T09:12:56;5.28;;;3.60;;
7965;SDS011;4028;43.272;26.932;2023-05-31T09:15:23;4.65;;;3.20;;
7965;SDS011;4028;43.272;26.932;2023-05-31T09:17:49;5.38;;;3.60;;
7965;SDS011;4028;43.272;26.932;2023-05-31T09:20:16;5.13;;;3.88;;
7965;SDS011;4028;43.272;26.932;2023-05-31T09:22:43;3.90;;;3.50;;
7965;SDS011;4028;43.272;26.932;2023-05-31T09:25:12;3.85;;;3.47;;
7965;SDS011;4028;43.272;26.932;2023-05-31T09:27:38;5.35;;;3.95;;
7965;SDS011;4028;43.272;26.932;2023-05-31T09:30:09;6.25;;;3.15;;
7965;SDS011;4028;43.272;26.932;2023-05-31T09:32:36;4.93;;;3.35;;
7965;SDS011;4028;43.272;26.932;2023-05-31T09:35:11;3.85;;;3.40;;
7965;SDS011;4028;43.272;26.932;2023-05-31T09:37:45;4.07;;;3.45;;
7965;SDS011;4028;43.272;26.932;2023-05-31T09:40:30;3.95;;;3.38;;
7965;SDS011;4028;43.272;26.932;2023-05-31T09:42:57;4.60;;;3.03;;
7965;SDS011;4028;43.272;26.932;2023-05-31T09:45:23;7.53;;;3.35;;
7965;SDS011;4028;43.272;26.932;2023-05-31T09:47:49;5.63;;;3.88;;
7965;SDS011;4028;43.272;26.932;2023-05-31T09:50:19;4.20;;;3.42;;
7965;SDS011;4028;43.272;26.932;2023-05-31T09:52:47;6.00;;;3.67;;
7965;SDS011;4028;43.272;26.932;2023-05-31T09:55:14;3.80;;;3.45;;
7965;SDS011;4028;43.272;26.932;2023-05-31T09:57:41;3.90;;;3.60;;
7965;SDS011;4028;43.272;26.932;2023-05-31T10:00:13;4.20;;;3.25;;
7965;SDS011;4028;43.272;26.932;2023-05-31T10:02:47;4.95;;;3.55;;
7965;SDS011;4028;43.272;26.932;2023-05-31T10:05:14;7.63;;;4.10;;
7965;SDS011;4028;43.272;26.932;2023-05-31T10:07:41;6.70;;;3.63;;
7965;SDS011;4028;43.272;26.932;2023-05-31T10:10:08;4.97;;;3.13;;
7965;SDS011;4028;43.272;26.932;2023-05-31T10:12:38;7.93;;;3.88;;
7965;SDS011;4028;43.272;26.932;2023-05-31T10:15:08;3.75;;;3.30;;
7965;SDS011;4028;43.272;26.932;2023-05-31T10:17:38;5.60;;;3.33;;
7965;SDS011;4028;43.272;26.932;2023-05-31T10:20:11;4.65;;;3.40;;
7965;SDS011;4028;43.272;26.932;2023-05-31T10:22:41;11.65;;;3.75;;
7965;SDS011;4028;43.272;26.932;2023-05-31T10:25:10;4.70;;;3.50;;
7965;SDS011;4028;43.272;26.932;2023-05-31T10:27:47;5.65;;;3.42;;
7965;SDS011;4028;43.272;26.932;2023-05-31T10:30:16;5.32;;;4.05;;
7965;SDS011;4028;43.272;26.932;2023-05-31T10:32:53;7.45;;;3.40;;
7965;SDS011;4028;43.272;26.932;2023-05-31T10:35:31;4.50;;;3.53;;
7965;SDS011;4028;43.272;26.932;2023-05-31T10:37:57;6.07;;;3.47;;
7965;SDS011;4028;43.272;26.932;2023-05-31T10:40:36;6.57;;;3.40;;
7965;SDS011;4028;43.272;26.932;2023-05-31T10:43:12;6.85;;;3.90;;
7965;SDS011;4028;43.272;26.932;2023-05-31T10:46:01;5.45;;;3.60;;
7965;SDS011;4028;43.272;26.932;2023-05-31T10:51:01;4.68;;;3.65;;
7965;SDS011;4028;43.272;26.932;2023-05-31T10:53:36;4.32;;;3.53;;
7965;SDS011;4028;43.272;26.932;2023-05-31T10:58:42;5.97;;;3.00;;
7965;SDS011;4028;43.272;26.932;2023-05-31T11:01:12;10.50;;;4.25;;
7965;SDS011;4028;43.272;26.932;2023-05-31T11:03:45;5.93;;;3.45;;
7965;SDS011;4028;43.272;26.932;2023-05-31T11:06:13;5.50;;;3.40;;
7965;SDS011;4028;43.272;26.932;2023-05-31T11:14:09;7.22;;;3.60;;
7965;SDS011;4028;43.272;26.932;2023-05-31T11:19:19;3.75;;;3.35;;
7965;SDS011;4028;43.272;26.932;2023-05-31T11:27:15;8.50;;;3.63;;
7965;SDS011;4028;43.272;26.932;2023-05-31T11:32:13;4.97;;;3.78;;
7965;SDS011;4028;43.272;26.932;2023-05-31T11:34:58;4.32;;;3.80;;
7965;SDS011;4028;43.272;26.932;2023-05-31T11:40:01;17.00;;;5.68;;
7965;SDS011;4028;43.272;26.932;2023-05-31T11:42:32;3.50;;;3.17;;
7965;SDS011;4028;43.272;26.932;2023-05-31T11:47:39;7.43;;;3.90;;
7965;SDS011;4028;43.272;26.932;2023-05-31T11:50:15;4.30;;;3.78;;
7965;SDS011;4028;43.272;26.932;2023-05-31T11:52:44;5.25;;;3.70;;
7965;SDS011;4028;43.272;26.932;2023-05-31T11:55:11;10.55;;;4.85;;
7965;SDS011;4028;43.272;26.932;2023-05-31T11:57:43;13.82;;;5.00;;
7965;SDS011;4028;43.272;26.932;2023-05-31T12:00:11;11.07;;;4.63;;
7965;SDS011;4028;43.272;26.932;2023-05-31T12:02:40;5.28;;;3.50;;
7965;SDS011;4028;43.272;26.932;2023-05-31T12:05:10;5.95;;;3.47;;
7965;SDS011;4028;43.272;26.932;2023-05-31T12:07:37;7.28;;;3.17;;
7965;SDS011;4028;43.272;26.932;2023-05-31T12:10:06;4.32;;;3.30;;
7965;SDS011;4028;43.272;26.932;2023-05-31T12:12:34;3.60;;;3.30;;
7965;SDS011;4028;43.272;26.932;2023-05-31T12:15:01;3.60;;;3.30;;
7965;SDS011;4028;43.272;26.932;2023-05-31T12:17:33;5.78;;;3.60;;
7965;SDS011;4028;43.272;26.932;2023-05-31T12:19:59;3.40;;;3.10;;
7965;SDS011;4028;43.272;26.932;2023-05-31T12:22:25;7.50;;;3.90;;
7965;SDS011;4028;43.272;26.932;2023-05-31T12:24:54;5.80;;;3.50;;
7965;SDS011;4028;43.272;26.932;2023-05-31T12:27:24;6.50;;;3.80;;
7965;SDS011;4028;43.272;26.932;2023-05-31T12:29:55;3.60;;;3.30;;
7965;SDS011;4028;43.272;26.932;2023-05-31T12:32:23;4.20;;;3.47;;
7965;SDS011;4028;43.272;26.932;2023-05-31T12:35:06;6.63;;;3.78;;
7965;SDS011;4028;43.272;26.932;2023-05-31T12:37:37;4.93;;;3.28;;
7965;SDS011;4028;43.272;26.932;2023-05-31T12:40:13;5.10;;;4.05;;
7965;SDS011;4028;43.272;26.932;2023-05-31T12:42:41;3.88;;;3.47;;
7965;SDS011;4028;43.272;26.932;2023-05-31T12:45:07;4.38;;;3.55;;
7965;SDS011;4028;43.272;26.932;2023-05-31T12:47:34;4.75;;;3.40;;
7965;SDS011;4028;43.272;26.932;2023-05-31T12:52:35;4.75;;;3.45;;
7965;SDS011;4028;43.272;26.932;2023-05-31T12:55:03;3.35;;;3.05;;
7965;SDS011;4028;43.272;26.932;2023-05-31T12:57:30;4.03;;;3.42;;
7965;SDS011;4028;43.272;26.932;2023-05-31T13:02:25;36.85;;;8.00;;
7965;SDS011;4028;43.272;26.932;2023-05-31T13:04:51;18.23;;;4.82;;
7965;SDS011;4028;43.272;26.932;2023-05-31T13:07:16;12.48;;;4.00;;
7965;SDS011;4028;43.272;26.932;2023-05-31T13:09:42;4.43;;;3.10;;
7965;SDS011;4028;43.272;26.932;2023-05-31T13:12:07;6.00;;;3.97;;
7965;SDS011;4028;43.272;26.932;2023-05-31T13:14:33;4.13;;;3.53;;
7965;SDS011;4028;43.272;26.932;2023-05-31T13:16:58;15.35;;;5.50;;
7965;SDS011;4028;43.272;26.932;2023-05-31T13:19:24;13.90;;;4.78;;
7965;SDS011;4028;43.272;26.932;2023-05-31T13:21:49;4.43;;;3.60;;
7965;SDS011;4028;43.272;26.932;2023-05-31T13:24:15;6.55;;;3.50;;
7965;SDS011;4028;43.272;26.932;2023-05-31T13:26:40;4.57;;;3.40;;
7965;SDS011;4028;43.272;26.932;2023-05-31T13:29:06;4.45;;;3.70;;
7965;SDS011;4028;43.272;26.932;2023-05-31T13:31:32;6.07;;;3.33;;
7965;SDS011;4028;43.272;26.932;2023-05-31T13:33:57;5.45;;;3.28;;
7965;SDS011;4028;43.272;26.932;2023-05-31T13:36:23;3.85;;;3.42;;
7965;SDS011;4028;43.272;26.932;2023-05-31T13:38:49;5.30;;;3.72;;
7965;SDS011;4028;43.272;26.932;2023-05-31T13:41:15;4.35;;;3.30;;
7965;SDS011;4028;43.272;26.932;2023-05-31T13:43:40;3.90;;;3.53;;
7965;SDS011;4028;43.272;26.932;2023-05-31T13:46:06;6.32;;;3.15;;
7965;SDS011;4028;43.272;26.932;2023-05-31T13:48:36;4.50;;;3.20;;
7965;SDS011;4028;43.272;26.932;2023-05-31T13:51:05;8.15;;;3.92;;
7965;SDS011;4028;43.272;26.932;2023-05-31T13:53:31;4.82;;;3.65;;
7965;SDS011;4028;43.272;26.932;2023-05-31T13:55:57;3.95;;;3.28;;
7965;SDS011;4028;43.272;26.932;2023-05-31T13:58:22;4.82;;;3.55;;
7965;SDS011;4028;43.272;26.932;2023-05-31T14:00:48;3.95;;;3.55;;
7965;SDS011;4028;43.272;26.932;2023-05-31T14:03:15;4.15;;;3.63;;
7965;SDS011;4028;43.272;26.932;2023-05-31T14:05:41;4.93;;;3.65;;
7965;SDS011;4028;43.272;26.932;2023-05-31T14:08:08;6.43;;;3.42;;
7965;SDS011;4028;43.272;26.932;2023-05-31T14:10:34;4.43;;;3.75;;
7965;SDS011;4028;43.272;26.932;2023-05-31T14:12:59;4.68;;;3.33;;
7965;SDS011;4028;43.272;26.932;2023-05-31T14:15:25;5.60;;;3.53;;
7965;SDS011;4028;43.272;26.932;2023-05-31T14:17:50;6.07;;;3.22;;
7965;SDS011;4028;43.272;26.932;2023-05-31T14:20:16;3.72;;;3.28;;
7965;SDS011;4028;43.272;26.932;2023-05-31T14:22:41;5.70;;;3.28;;
7965;SDS011;4028;43.272;26.932;2023-05-31T14:25:07;4.93;;;3.10;;
7965;SDS011;4028;43.272;26.932;2023-05-31T14:27:33;3.58;;;3.28;;
7965;SDS011;4028;43.272;26.932;2023-05-31T14:29:58;3.63;;;3.33;;
7965;SDS011;4028;43.272;26.932;2023-05-31T14:32:24;7.05;;;3.38;;
7965;SDS011;4028;43.272;26.932;2023-05-31T14:34:49;7.50;;;3.55;;
7965;SDS011;4028;43.272;26.932;2023-05-31T14:37:15;6.03;;;3.38;;
7965;SDS011;4028;43.272;26.932;2023-05-31T14:39:41;5.80;;;3.40;;
7965;SDS011;4028;43.272;26.932;2023-05-31T14:42:07;4.80;;;3.25;;
7965;SDS011;4028;43.272;26.932;2023-05-31T14:44:33;3.80;;;3.50;;
7965;SDS011;4028;43.272;26.932;2023-05-31T14:47:00;4.45;;;3.10;;
7965;SDS011;4028;43.272;26.932;2023-05-31T14:49:26;5.38;;;3.40;;
7965;SDS011;4028;43.272;26.932;2023-05-31T14:51:52;5.97;;;3.17;;
7965;SDS011;4028;43.272;26.932;2023-05-31T14:54:18;4.20;;;3.20;;
7965;SDS011;4028;43.272;26.932;2023-05-31T14:56:44;4.22;;;3.08;;
7965;SDS011;4028;43.272;26.932;2023-05-31T14:59:10;5.90;;;2.80;;
7965;SDS011;4028;43.272;26.932;2023-05-31T15:01:36;5.18;;;3.20;;
7965;SDS011;4028;43.272;26.932;2023-05-31T15:04:14;5.07;;;3.10;;
7965;SDS011;4028;43.272;26.932;2023-05-31T15:06:40;3.10;;;2.70;;
7965;SDS011;4028;43.272;26.932;2023-05-31T15:09:07;3.67;;;3.17;;
7965;SDS011;4028;43.272;26.932;2023-05-31T15:11:33;5.10;;;3.25;;
7965;SDS011;4028;43.272;26.932;2023-05-31T15:13:59;5.53;;;3.10;;
7965;SDS011;4028;43.272;26.932;2023-05-31T15:16:25;5.20;;;3.05;;
7965;SDS011;4028;43.272;26.932;2023-05-31T15:18:50;6.07;;;2.80;;
7965;SDS011;4028;43.272;26.932;2023-05-31T15:21:17;5.32;;;3.17;;
7965;SDS011;4028;43.272;26.932;2023-05-31T15:23:43;4.93;;;3.10;;
7965;SDS011;4028;43.272;26.932;2023-05-31T15:26:08;3.13;;;2.83;;
7965;SDS011;4028;43.272;26.932;2023-05-31T15:28:34;8.35;;;3.15;;
7965;SDS011;4028;43.272;26.932;2023-05-31T15:31:00;4.70;;;3.08;;
7965;SDS011;4028;43.272;26.932;2023-05-31T15:33:27;5.25;;;3.00;;
7965;SDS011;4028;43.272;26.932;2023-05-31T15:35:53;4.35;;;2.97;;
7965;SDS011;4028;43.272;26.932;2023-05-31T15:38:18;3.30;;;3.00;;
7965;SDS011;4028;43.272;26.932;2023-05-31T15:40:44;6.57;;;3.38;;